Time;durP1;ratioP1;P1;durP2;ratioP2;P2;SDS_P1;SDS_P2;PMS_P1;PMS_P2;Temp;Humidity;BMP_temperature;BMP_pressure;BME280_temperature;BME280_humidity;BME280_pressure;Samples;Min_cycle;Max_cycle;Signal;HPM_P1;HPM_P2
2021/12/11 00:00:29;;;;;;;62.08;25.67;;;;;;;6.92;55.30;100069.16;6094864;23;96640;-79
2021/12/11 00:03:00;;;;;;;62.35;26.67;;;;;;;6.71;55.30;100087.31;6094157;23;96856;-79
2021/12/11 00:05:28;;;;;;;60.88;24.42;;;;;;;6.78;55.09;100083.59;6095829;23;96954;-79
2021/12/11 00:07:54;;;;;;;63.95;26.63;;;;;;;6.68;55.38;100087.41;6097646;23;98850;-79
2021/12/11 00:10:26;;;;;;;64.95;25.13;;;;;;;6.82;54.76;100091.38;6114619;23;96477;-79
2021/12/11 00:12:58;;;;;;;62.92;25.15;;;;;;;7.00;54.85;100093.44;6119382;23;96225;-80
2021/12/11 00:15:29;;;;;;;59.35;25.27;;;;;;;6.85;54.09;100093.91;6118173;23;98968;-79
2021/12/11 00:18:00;;;;;;;61.22;25.77;;;;;;;7.05;55.13;100102.03;6099700;23;97714;-80
2021/12/11 00:20:34;;;;;;;65.40;25.95;;;;;;;7.07;54.42;100101.09;6093933;23;96668;-79
2021/12/11 00:23:01;;;;;;;63.70;26.15;;;;;;;7.15;53.67;100109.56;6093830;23;96537;-79
2021/12/11 00:25:29;;;;;;;65.88;26.33;;;;;;;7.13;53.85;100100.91;6092747;23;101610;-79
2021/12/11 00:28:03;;;;;;;66.72;25.92;;;;;;;7.08;54.11;100105.44;6093272;23;99107;-79
2021/12/11 00:30:35;;;;;;;61.83;24.73;;;;;;;7.06;54.61;100109.88;6096857;23;96554;-78
2021/12/11 00:33:05;;;;;;;65.38;26.58;;;;;;;7.06;54.51;100124.78;6099966;23;96449;-79
2021/12/11 00:35:34;;;;;;;65.40;28.27;;;;;;;6.82;55.65;100120.28;6096962;23;99108;-79
2021/12/11 00:38:03;;;;;;;69.07;27.08;;;;;;;7.03;55.40;100114.34;6094702;23;100823;-80
2021/12/11 00:40:32;;;;;;;63.22;26.55;;;;;;;7.06;54.87;100124.78;6094915;23;96603;-79
2021/12/11 00:43:04;;;;;;;58.75;26.13;;;;;;;7.00;54.67;100131.09;6093180;23;96887;-79
2021/12/11 00:45:33;;;;;;;57.78;24.77;;;;;;;7.07;54.96;100137.00;6091552;23;100503;-79
2021/12/11 00:48:03;;;;;;;52.80;22.88;;;;;;;7.01;54.47;100145.06;6092115;23;98842;-79
2021/12/11 00:50:34;;;;;;;54.60;23.90;;;;;;;6.86;54.84;100149.03;6092674;23;96741;-79
2021/12/11 00:53:08;;;;;;;51.90;22.95;;;;;;;6.95;54.27;100147.91;6093134;23;96660;-80
2021/12/11 00:55:39;;;;;;;48.30;22.88;;;;;;;6.83;54.45;100158.75;6092358;23;99278;-80
2021/12/11 00:58:08;;;;;;;50.90;22.45;;;;;;;6.89;54.95;100164.69;6092479;23;97727;-79
2021/12/11 01:00:41;;;;;;;51.13;22.08;;;;;;;6.84;54.66;100171.81;6094912;23;96588;-79
2021/12/11 01:03:09;;;;;;;49.70;22.50;;;;;;;6.93;55.22;100175.97;6098909;23;96641;-79
2021/12/11 01:05:41;;;;;;;48.10;22.80;;;;;;;6.85;54.89;100177.94;6094973;23;98307;-78
2021/12/11 01:08:19;;;;;;;55.35;23.85;;;;;;;6.71;54.94;100180.97;6094166;23;98895;-79
2021/12/11 01:10:49;;;;;;;52.40;23.13;;;;;;;6.47;54.99;100181.66;6096278;23;96636;-78
2021/12/11 01:13:20;;;;;;;49.08;22.95;;;;;;;6.44;55.41;100187.84;6097327;23;96804;-79
2021/12/11 01:15:55;;;;;;;58.00;24.73;;;;;;;6.74;54.91;100192.25;6095346;23;99790;-79
2021/12/11 01:18:35;;;;;;;50.88;22.67;;;;;;;6.84;54.44;100202.47;6095177;23;99262;-77
2021/12/11 01:21:25;;;;;;;54.47;23.23;;;;;;;6.51;54.95;100202.53;6099791;23;96651;-81
2021/12/11 01:24:38;;;;;;;;;;;;;;;;;;;;;
2021/12/11 09:16:05;;;;;;;39.72;15.93;;;;;;;6.84;53.94;100914.22;6101923;22;100488;-78
2021/12/11 09:18:35;;;;;;;33.72;14.52;;;;;;;6.68;53.39;100911.03;6090144;23;96760;-79
2021/12/11 09:21:07;;;;;;;33.63;13.98;;;;;;;6.88;53.11;100913.31;6092500;23;97623;-80
2021/12/11 09:23:38;;;;;;;37.33;15.90;;;;;;;6.85;52.84;100911.59;6099770;23;99617;-79
2021/12/11 09:26:13;;;;;;;39.55;16.05;;;;;;;6.81;52.99;100915.19;6104129;23;98571;-80
2021/12/11 09:28:47;;;;;;;39.45;16.23;;;;;;;7.03;52.87;100926.16;6108530;23;97007;-79
2021/12/11 09:31:18;;;;;;;39.75;17.45;;;;;;;6.94;52.95;100929.81;6116704;23;95833;-79
2021/12/11 09:33:49;;;;;;;40.67;17.17;;;;;;;6.93;53.25;100932.47;6114867;23;97624;-79
2021/12/11 09:36:20;;;;;;;34.90;14.98;;;;;;;6.94;52.87;100928.97;6115683;23;98090;-79
2021/12/11 09:38:52;;;;;;;38.25;15.32;;;;;;;7.06;52.61;100934.00;6114039;23;95815;-80
2021/12/11 09:41:19;;;;;;;34.30;15.75;;;;;;;7.20;52.13;100926.72;6114188;23;96379;-77
2021/12/11 09:43:50;;;;;;;35.75;15.23;;;;;;;7.07;52.40;100930.47;6103460;23;97885;-79
2021/12/11 09:46:20;;;;;;;38.00;14.85;;;;;;;7.10;52.61;100928.63;6103913;23;98415;-79
2021/12/11 09:48:48;;;;;;;35.45;14.50;;;;;;;7.31;51.65;100940.50;6101408;23;96804;-78
2021/12/11 09:51:19;;;;;;;34.88;15.23;;;;;;;7.16;52.19;100940.78;6095182;23;97133;-77
2021/12/11 09:53:49;;;;;;;35.00;15.00;;;;;;;7.12;52.35;100936.50;6089796;23;97853;-78
2021/12/11 09:56:20;;;;;;;37.85;15.07;;;;;;;7.06;52.47;100944.50;6093121;23;99151;-78
2021/12/11 09:58:48;;;;;;;37.70;15.77;;;;;;;7.08;51.95;100955.84;6092191;23;96700;-78
2021/12/11 10:01:18;;;;;;;32.13;14.18;;;;;;;7.02;52.66;100953.34;6092841;23;96753;-79
2021/12/11 10:03:51;;;;;;;36.08;16.30;;;;;;;7.10;51.62;100961.94;6095368;23;97918;-79
2021/12/11 10:06:41;;;;;;;29.77;13.90;;;;;;;7.19;52.31;100967.03;6102123;23;99378;-79
2021/12/11 10:09:18;;;;;;;29.25;12.85;;;;;;;7.06;51.53;100974.28;6099277;23;96718;-80
2021/12/11 10:11:56;;;;;;;27.58;12.25;;;;;;;7.26;50.93;100976.53;6098369;23;96661;-80
2021/12/11 10:14:28;;;;;;;32.40;13.43;;;;;;;7.27;51.67;100975.66;6095472;23;101801;-79
2021/12/11 10:16:59;;;;;;;31.83;13.70;;;;;;;7.16;51.47;100988.09;6094707;23;96816;-80
2021/12/11 10:19:29;;;;;;;31.60;13.77;;;;;;;7.15;51.14;100981.97;6093918;23;97106;-79
2021/12/11 10:22:01;;;;;;;29.02;12.93;;;;;;;7.24;51.21;100993.22;6095216;23;97045;-80
2021/12/11 10:24:30;;;;;;;25.27;12.43;;;;;;;7.36;50.92;100987.75;6094775;23;97734;-78
2021/12/11 10:26:58;;;;;;;27.27;12.27;;;;;;;7.17;50.60;100984.59;6093146;23;97746;-80
2021/12/11 10:29:26;;;;;;;24.75;12.57;;;;;;;7.10;50.48;100988.22;6096934;23;96624;-78
2021/12/11 10:31:56;;;;;;;26.77;12.57;;;;;;;7.32;50.67;100986.06;6096212;23;96824;-78
2021/12/11 10:34:32;;;;;;;26.50;13.48;;;;;;;7.20;50.13;100985.41;6099933;23;98775;-79
2021/12/11 10:37:02;;;;;;;27.65;12.80;;;;;;;7.36;50.41;100985.09;6105626;23;97934;-81
2021/12/11 10:39:47;;;;;;;28.40;13.45;;;;;;;7.26;50.57;100987.06;6103814;23;97047;-80
2021/12/11 10:42:15;;;;;;;29.98;13.50;;;;;;;7.52;50.14;100995.31;6094410;23;97133;-79
2021/12/11 10:44:50;;;;;;;31.33;14.02;;;;;;;7.44;50.13;100993.72;6090685;23;97936;-79
2021/12/11 10:47:23;;;;;;;37.20;16.38;;;;;;;7.21;50.88;100996.78;6092692;23;98821;-79
2021/12/11 10:49:52;;;;;;;32.75;14.40;;;;;;;7.32;50.78;101004.47;6082852;23;96862;-79
2021/12/11 10:52:21;;;;;;;32.25;15.35;;;;;;;7.17;51.64;101010.88;6081878;23;97332;-79
2021/12/11 10:54:50;;;;;;;29.58;13.80;;;;;;;7.11;51.48;101018.84;6082820;23;98137;-79
2021/12/11 10:57:19;;;;;;;30.42;13.32;;;;;;;7.21;51.29;101020.44;6087811;23;99449;-79
2021/12/11 10:59:51;;;;;;;30.55;14.82;;;;;;;7.38;50.93;101028.03;6091815;23;96660;-79
2021/12/11 11:02:21;;;;;;;31.50;14.20;;;;;;;7.30;50.92;101038.66;6093182;23;96775;-80
2021/12/11 11:05:01;;;;;;;28.13;13.32;;;;;;;7.38;50.43;101039.41;6093043;23;98856;-79
2021/12/11 11:07:29;;;;;;;32.40;14.18;;;;;;;7.09;51.27;101046.91;6096459;23;100150;-79
2021/12/11 11:09:58;;;;;;;29.10;13.77;;;;;;;7.12;50.85;101045.13;6092292;23;96989;-77
2021/12/11 11:12:27;;;;;;;29.35;14.43;;;;;;;7.31;50.76;101055.31;6091795;23;96869;-77
2021/12/11 11:14:56;;;;;;;31.40;15.70;;;;;;;7.35;51.22;101054.38;6089910;23;99589;-78
2021/12/11 11:17:28;;;;;;;33.47;14.95;;;;;;;7.12;51.58;101065.28;6090967;23;97581;-78
2021/12/11 11:19:56;;;;;;;37.90;16.50;;;;;;;7.24;51.53;101051.91;6089547;23;97588;-77
2021/12/11 11:22:26;;;;;;;36.22;15.63;;;;;;;7.20;51.20;101058.13;6091272;23;96829;-77
2021/12/11 11:24:58;;;;;;;32.13;15.02;;;;;;;7.49;49.94;101053.22;6098735;23;98910;-79
2021/12/11 11:27:26;;;;;;;33.53;14.95;;;;;;;7.27;50.81;101064.16;6114400;23;97950;-78
2021/12/11 11:29:54;;;;;;;26.75;13.65;;;;;;;7.20;50.61;101058.13;6116481;23;96381;-78
2021/12/11 11:32:31;;;;;;;26.45;13.38;;;;;;;7.12;50.53;101065.28;6098003;23;96496;-77
2021/12/11 11:34:59;;;;;;;29.85;13.10;;;;;;;6.98;51.29;101068.13;6091013;23;100972;-77
2021/12/11 11:37:26;;;;;;;27.35;13.75;;;;;;;7.22;50.78;101076.50;6090351;23;101471;-79
2021/12/11 11:39:53;;;;;;;29.02;14.00;;;;;;;6.91;51.45;101084.00;6091631;23;96964;-77
2021/12/11 11:42:21;;;;;;;26.42;13.38;;;;;;;7.17;50.78;101090.56;6092290;23;97038;-78
2021/12/11 11:44:50;;;;;;;24.95;12.57;;;;;;;7.42;50.53;101090.16;6090342;23;98753;-76
2021/12/11 11:47:20;;;;;;;25.33;12.48;;;;;;;7.32;49.89;101088.59;6090405;23;98863;-78
2021/12/11 11:49:47;;;;;;;25.10;12.55;;;;;;;7.20;50.28;101094.94;6091567;23;97226;-77
2021/12/11 11:55:23;;;;;;;33.00;14.63;;;;;;;7.22;50.60;101109.75;6086180;23;98402;-78
2021/12/11 11:57:52;;;;;;;24.67;12.90;;;;;;;7.34;50.20;101116.59;6091229;23;100623;-77
2021/12/11 12:00:24;;;;;;;27.55;12.73;;;;;;;7.26;50.52;101117.63;6090689;23;96628;-77
2021/12/11 12:02:52;;;;;;;26.25;13.07;;;;;;;7.49;50.11;101115.47;6091107;23;96589;-77
2021/12/11 12:05:20;;;;;;;26.92;13.57;;;;;;;7.30;50.66;101130.66;6090880;23;98829;-77
2021/12/11 12:07:49;;;;;;;28.25;12.82;;;;;;;7.46;50.07;101123.41;6090867;23;98771;-77
2021/12/11 12:10:20;;;;;;;27.13;13.35;;;;;;;7.47;49.38;101130.41;6090954;23;96668;-78
2021/12/11 12:12:48;;;;;;;27.40;13.05;;;;;;;7.63;49.92;101134.50;6091096;23;96704;-78
2021/12/11 12:15:19;;;;;;;30.63;14.80;;;;;;;7.56;49.89;101140.75;6090417;23;99173;-79
2021/12/11 12:17:46;;;;;;;28.85;14.88;;;;;;;7.28;50.73;101150.00;6091158;23;99196;-78
2021/12/11 12:20:17;;;;;;;27.73;14.18;;;;;;;7.34;50.41;101158.66;6091706;23;96965;-78
2021/12/11 12:22:46;;;;;;;29.85;13.35;;;;;;;7.40;50.38;101152.44;6090012;23;97068;-78
2021/12/11 12:25:13;;;;;;;34.72;15.52;;;;;;;7.12;50.75;101159.88;6088850;23;99102;-79
2021/12/11 12:27:42;;;;;;;27.85;13.98;;;;;;;7.17;50.64;101158.91;6090657;23;101366;-79
2021/12/11 12:30:16;;;;;;;29.75;14.20;;;;;;;7.09;51.12;101170.41;6092305;23;96570;-79
2021/12/11 12:32:43;;;;;;;30.75;14.73;;;;;;;7.30;50.81;101179.75;6090737;23;96677;-77
2021/12/11 12:35:12;;;;;;;30.33;14.07;;;;;;;7.35;50.46;101178.78;6088578;23;99093;-77
2021/12/11 12:37:42;;;;;;;30.75;15.13;;;;;;;7.24;50.86;101180.72;6092596;23;99113;-78
2021/12/11 12:40:14;;;;;;;32.50;14.07;;;;;;;7.37;50.83;101190.16;6093949;23;96608;-78
2021/12/11 12:42:51;;;;;;;33.53;15.10;;;;;;;7.46;50.74;101191.78;6093818;23;97025;-78
2021/12/11 12:45:23;;;;;;;28.33;14.13;;;;;;;7.25;50.97;101195.59;6092597;23;99021;-76
2021/12/11 12:47:55;;;;;;;32.45;15.10;;;;;;;7.57;50.47;101195.09;6091223;23;98827;-77
2021/12/11 12:50:27;;;;;;;28.63;13.55;;;;;;;7.53;50.38;101199.56;6092562;23;96698;-79
2021/12/11 12:52:57;;;;;;;29.08;14.27;;;;;;;7.60;49.89;101200.31;6094606;23;96576;-78
2021/12/11 12:55:29;;;;;;;29.40;13.57;;;;;;;7.25;50.00;101207.88;6092720;23;97814;-78
2021/12/11 12:57:57;;;;;;;31.65;14.85;;;;;;;7.23;50.60;101202.63;6094108;23;98782;-77
2021/12/11 13:00:27;;;;;;;32.35;15.13;;;;;;;7.35;50.68;101210.34;6096492;23;96675;-77
2021/12/11 13:02:58;;;;;;;29.40;14.13;;;;;;;7.42;50.55;101205.84;6093017;23;96726;-76
2021/12/11 13:05:29;;;;;;;31.00;14.02;;;;;;;7.37;51.21;101212.94;6099033;23;99028;-77
2021/12/11 13:07:59;;;;;;;35.30;15.85;;;;;;;7.43;50.52;101204.97;6096224;23;98910;-78
2021/12/11 13:10:30;;;;;;;29.83;15.20;;;;;;;7.56;50.94;101211.75;6097463;23;96974;-78
2021/12/11 13:13:00;;;;;;;32.95;16.10;;;;;;;7.43;50.85;101208.47;6104652;23;97127;-79
2021/12/11 13:15:32;;;;;;;31.73;14.57;;;;;;;7.45;50.55;101211.94;6115398;23;97838;-79
2021/12/11 13:18:01;;;;;;;31.13;15.23;;;;;;;7.32;51.48;101210.38;6116975;23;97572;-79
2021/12/11 13:20:34;;;;;;;33.83;15.60;;;;;;;7.42;50.86;101221.63;6115827;23;96356;-80
2021/12/11 13:23:04;;;;;;;32.28;15.35;;;;;;;7.33;51.14;101214.75;6108867;23;96601;-80
2021/12/11 13:25:40;;;;;;;30.85;15.32;;;;;;;7.49;50.75;101208.38;6105398;23;98946;-80
2021/12/11 13:28:07;;;;;;;33.92;16.02;;;;;;;7.60;50.51;101226.63;6105619;23;98866;-78
2021/12/11 13:30:42;;;;;;;69.22;32.35;;;;;;;7.42;51.19;101225.13;6091191;23;96694;-79
2021/12/11 13:33:09;;;;;;;28.33;13.43;;;;;;;7.41;50.66;101240.94;6091313;23;97030;-78
2021/12/11 13:35:42;;;;;;;41.40;21.25;;;;;;;7.47;51.00;101244.34;6090274;23;98735;-78
2021/12/11 13:38:12;;;;;;;29.50;14.55;;;;;;;7.57;50.72;101251.19;6091386;23;99046;-77
2021/12/11 13:40:43;;;;;;;30.65;13.80;;;;;;;7.49;50.69;101250.44;6090686;23;97091;-79
2021/12/11 13:43:10;;;;;;;29.05;14.05;;;;;;;7.42;50.86;101261.06;6091215;23;96620;-78
2021/12/11 13:45:42;;;;;;;25.30;14.40;;;;;;;7.16;51.59;101270.19;6089141;23;98937;-79
2021/12/11 13:48:13;;;;;;;27.17;13.93;;;;;;;7.13;52.00;101277.25;6094014;23;96685;-78
2021/12/11 13:50:44;;;;;;;26.48;13.65;;;;;;;6.73;52.42;101275.09;6099726;23;96865;-78
2021/12/11 13:53:12;;;;;;;27.67;14.27;;;;;;;7.05;52.59;101284.34;6102464;23;96723;-79
2021/12/11 13:56:13;;;;;;;28.10;14.75;;;;;;;7.08;52.21;101289.59;6100023;23;97903;-79
2021/12/11 13:58:40;;;;;;;28.80;14.15;;;;;;;7.33;51.61;101296.25;6098489;23;98211;-79
2021/12/11 14:01:24;;;;;;;29.58;14.43;;;;;;;7.12;52.03;101307.91;6100108;23;96569;-79
2021/12/11 14:03:51;;;;;;;26.20;13.75;;;;;;;7.10;52.00;101308.81;6096636;23;96886;-76
2021/12/11 14:06:21;;;;;;;27.65;14.02;;;;;;;7.06;51.96;101318.50;6099373;23;99156;-78
2021/12/11 14:08:54;;;;;;;29.33;14.40;;;;;;;6.74;53.05;101321.50;6092842;23;98746;-78
2021/12/11 14:11:21;;;;;;;30.17;15.05;;;;;;;6.87;53.12;101314.34;6097307;23;96588;-77
2021/12/11 14:13:47;;;;;;;29.13;14.68;;;;;;;6.83;53.28;101324.94;6102509;23;96782;-78
2021/12/11 14:16:15;;;;;;;33.00;17.40;;;;;;;6.74;53.02;101326.75;6103120;23;97652;-77
2021/12/11 14:18:43;;;;;;;30.45;15.50;;;;;;;6.54;53.62;101326.09;6104446;23;97954;-78
2021/12/11 14:21:10;;;;;;;29.75;15.55;;;;;;;6.64;53.84;101325.09;6104135;23;96552;-79
2021/12/11 14:23:40;;;;;;;29.15;15.07;;;;;;;6.72;53.44;101332.91;6107104;23;97035;-79
2021/12/11 14:26:11;;;;;;;29.70;15.38;;;;;;;7.02;52.75;101342.22;6106698;23;99539;-79
2021/12/11 14:28:38;;;;;;;32.00;16.13;;;;;;;6.95;52.77;101340.53;6102697;23;97649;-79
2021/12/11 14:31:08;;;;;;;34.95;15.95;;;;;;;6.95;52.91;101345.81;6102250;23;96969;-77
2021/12/11 14:33:34;;;;;;;28.48;14.55;;;;;;;6.97;52.55;101352.75;6100067;23;96446;-79
2021/12/11 14:36:02;;;;;;;32.03;16.20;;;;;;;7.03;52.86;101355.31;6093396;23;98904;-78
2021/12/11 14:38:28;;;;;;;31.77;15.20;;;;;;;7.08;52.36;101358.78;6094033;23;98782;-77
2021/12/11 14:41:12;;;;;;;32.55;16.13;;;;;;;6.98;53.37;101358.88;6094019;23;98378;-77
2021/12/11 14:43:42;;;;;;;37.10;16.45;;;;;;;6.99;53.30;101373.78;6098747;23;96637;-79
2021/12/11 14:46:10;;;;;;;30.90;15.57;;;;;;;6.74;53.80;101366.16;6093448;23;98802;-77
2021/12/11 14:48:38;;;;;;;32.78;15.60;;;;;;;6.96;53.40;101384.28;6094328;23;100277;-78
2021/12/11 14:51:09;;;;;;;33.90;16.30;;;;;;;6.98;53.32;101388.66;6093808;23;96866;-78
2021/12/11 14:53:40;;;;;;;36.30;16.83;;;;;;;7.10;53.03;101391.16;6093312;23;96882;-78
2021/12/11 14:56:11;;;;;;;33.90;16.05;;;;;;;7.04;53.01;101388.59;6093430;23;98744;-78
2021/12/11 14:58:40;;;;;;;32.95;15.07;;;;;;;6.98;52.60;101387.78;6094453;23;98862;-77
2021/12/11 15:01:11;;;;;;;33.03;15.80;;;;;;;6.81;53.41;101393.22;6094912;23;96745;-77
2021/12/11 15:03:38;;;;;;;34.53;15.70;;;;;;;7.03;52.82;101400.00;6094656;23;96793;-78
2021/12/11 15:06:05;;;;;;;38.10;16.17;;;;;;;6.94;53.15;101393.97;6093173;23;99339;-79
2021/12/11 15:08:36;;;;;;;37.00;16.83;;;;;;;6.88;53.21;101391.41;6095141;23;99113;-79
2021/12/11 15:11:08;;;;;;;34.85;16.02;;;;;;;6.88;53.41;101394.03;6095910;23;96957;-78
2021/12/11 15:13:35;;;;;;;31.38;15.95;;;;;;;6.84;53.47;101397.56;6093469;23;97055;-78
2021/12/11 15:16:05;;;;;;;34.90;17.02;;;;;;;7.01;53.29;101403.53;6093623;23;101397;-78
2021/12/11 15:18:32;;;;;;;35.38;16.20;;;;;;;6.76;53.69;101406.38;6094218;23;97630;-78
2021/12/11 15:21:06;;;;;;;36.83;17.83;;;;;;;6.69;53.77;101404.72;6094183;23;96575;-77
2021/12/11 15:23:33;;;;;;;35.63;16.42;;;;;;;6.76;53.80;101409.00;6093799;23;96744;-79
2021/12/11 15:26:02;;;;;;;37.63;17.50;;;;;;;6.87;53.69;101413.31;6093945;23;99156;-77
2021/12/11 15:28:31;;;;;;;35.70;16.92;;;;;;;7.09;53.27;101410.44;6095577;23;102774;-78
2021/12/11 15:31:03;;;;;;;32.00;15.65;;;;;;;6.89;53.20;101419.44;6094044;23;96628;-78
2021/12/11 15:33:32;;;;;;;37.33;16.23;;;;;;;6.68;53.86;101426.63;6094938;23;96862;-78
2021/12/11 15:36:05;;;;;;;35.03;16.23;;;;;;;6.96;53.60;101426.34;6094249;23;101775;-79
2021/12/11 15:38:33;;;;;;;34.30;16.63;;;;;;;6.88;53.69;101430.81;6096010;23;98048;-79
2021/12/11 15:41:00;;;;;;;33.53;16.15;;;;;;;6.96;53.41;101436.84;6097064;23;96508;-78
2021/12/11 15:43:32;;;;;;;36.47;16.67;;;;;;;6.90;53.50;101444.78;6095504;23;96706;-78
2021/12/11 15:46:02;;;;;;;33.88;17.33;;;;;;;6.79;53.31;101439.66;6094358;23;98794;-79
2021/12/11 15:48:29;;;;;;;33.60;16.25;;;;;;;6.88;53.14;101441.34;6095105;23;99492;-77
2021/12/11 15:50:58;;;;;;;39.20;17.90;;;;;;;6.71;53.89;101447.59;6096309;23;96776;-78
2021/12/11 15:53:27;;;;;;;37.22;17.02;;;;;;;6.86;53.78;101453.59;6096338;23;96587;-79
2021/12/11 15:55:55;;;;;;;37.40;17.65;;;;;;;6.73;53.62;101450.22;6094575;23;98968;-77
2021/12/11 15:58:22;;;;;;;36.30;17.35;;;;;;;6.89;53.82;101453.59;6095237;23;101852;-77
2021/12/11 16:00:55;;;;;;;37.20;16.75;;;;;;;6.85;53.47;101459.72;6095825;23;96990;-76
2021/12/11 16:03:22;;;;;;;38.80;17.23;;;;;;;6.95;53.34;101464.03;6096522;23;96853;-76
2021/12/11 16:05:49;;;;;;;40.35;17.95;;;;;;;6.80;53.25;101471.16;6096048;23;97681;-78
2021/12/11 16:08:18;;;;;;;35.35;17.33;;;;;;;6.69;53.87;101477.41;6099046;23;98007;-77
2021/12/11 16:10:46;;;;;;;34.40;16.48;;;;;;;6.86;53.61;101488.63;6093798;23;97067;-78
2021/12/11 16:13:13;;;;;;;38.67;18.02;;;;;;;6.76;53.79;101487.81;6095695;23;96690;-78
2021/12/11 16:15:45;;;;;;;35.10;16.05;;;;;;;6.76;53.97;101486.97;6093449;23;101872;-78
2021/12/11 16:18:12;;;;;;;34.28;16.80;;;;;;;6.71;53.65;101488.75;6096040;23;99810;-77
2021/12/11 16:20:46;;;;;;;35.33;18.27;;;;;;;6.71;54.03;101488.75;6095124;23;97253;-78
2021/12/11 16:23:14;;;;;;;33.38;16.52;;;;;;;6.82;53.75;101493.94;6095890;23;97123;-78
2021/12/11 16:25:44;;;;;;;36.63;18.00;;;;;;;6.73;53.84;101493.09;6094550;23;101944;-76
2021/12/11 16:28:13;;;;;;;35.20;16.60;;;;;;;6.73;53.94;101492.25;6094454;23;98030;-77
2021/12/11 16:30:42;;;;;;;39.53;16.92;;;;;;;6.76;53.14;101490.44;6093133;23;96594;-78
2021/12/11 16:33:09;;;;;;;37.53;17.38;;;;;;;6.57;53.97;101488.84;6094970;23;96792;-78
2021/12/11 16:35:37;;;;;;;39.85;17.55;;;;;;;6.80;53.84;101500.06;6093968;23;99726;-79
2021/12/11 16:38:07;;;;;;;38.25;17.00;;;;;;;6.85;53.51;101492.13;6095133;23;101067;-79
2021/12/11 16:40:40;;;;;;;39.78;18.27;;;;;;;6.66;53.77;101501.03;6097120;23;96585;-78
2021/12/11 16:43:12;;;;;;;38.00;18.02;;;;;;;6.52;53.85;101498.50;6099035;23;96582;-78
2021/12/11 16:45:42;;;;;;;39.10;18.27;;;;;;;6.67;53.92;101495.78;6099767;23;101271;-78
2021/12/11 16:48:10;;;;;;;35.03;17.60;;;;;;;6.59;54.48;101500.22;6115259;23;99128;-79
2021/12/11 16:50:40;;;;;;;35.28;16.88;;;;;;;6.79;53.63;101497.44;6115591;23;95889;-79
2021/12/11 16:53:09;;;;;;;38.17;17.00;;;;;;;6.78;53.24;101507.06;6107328;23;96662;-77
2021/12/11 16:55:37;;;;;;;34.08;16.85;;;;;;;6.73;53.33;101514.13;6112938;23;98129;-78
2021/12/11 16:58:05;;;;;;;42.75;18.15;;;;;;;6.51;53.35;101506.38;6116203;23;97811;-77
2021/12/11 17:00:36;;;;;;;35.38;17.65;;;;;;;6.36;54.68;101516.13;6114537;23;96427;-78
2021/12/11 17:03:04;;;;;;;38.90;17.45;;;;;;;6.62;54.03;101513.34;6112745;23;97001;-77
2021/12/11 17:05:32;;;;;;;39.03;17.85;;;;;;;6.60;53.90;101512.47;6107248;23;98319;-78
2021/12/11 17:07:59;;;;;;;36.08;18.13;;;;;;;6.60;54.08;101508.97;6115230;23;98883;-78
2021/12/11 17:10:32;;;;;;;37.55;18.70;;;;;;;6.36;54.54;101512.63;6107777;23;96671;-80
2021/12/11 17:13:01;;;;;;;38.28;17.95;;;;;;;6.36;54.09;101507.38;6095596;23;96684;-78
2021/12/11 17:15:28;;;;;;;38.33;18.52;;;;;;;6.52;53.40;101522.16;6095690;23;98776;-79
2021/12/11 17:17:54;;;;;;;40.10;18.45;;;;;;;6.50;53.36;101513.41;6098382;23;98720;-78
2021/12/11 17:20:24;;;;;;;39.83;18.42;;;;;;;6.52;53.60;101524.78;6111913;23;96806;-77
2021/12/11 17:22:54;;;;;;;37.95;18.67;;;;;;;6.73;53.07;101527.25;6114588;23;96697;-78
2021/12/11 17:25:25;;;;;;;38.92;19.35;;;;;;;6.59;53.23;101526.47;6110056;23;98099;-78
2021/12/11 17:27:54;;;;;;;44.08;20.55;;;;;;;6.46;53.54;101532.69;6108254;23;96542;-78
2021/12/11 17:30:22;;;;;;;41.90;19.75;;;;;;;6.19;54.48;101535.47;6105707;23;96617;-76
2021/12/11 17:32:49;;;;;;;41.38;19.85;;;;;;;6.10;54.81;101536.41;6110281;23;96605;-77
2021/12/11 17:35:15;;;;;;;42.17;19.33;;;;;;;6.00;54.85;101540.81;6112393;23;99207;-78
2021/12/11 17:37:42;;;;;;;42.40;19.90;;;;;;;6.31;54.74;101543.28;6106727;23;97717;-78
2021/12/11 17:40:11;;;;;;;48.95;20.85;;;;;;;6.13;54.24;101540.75;6098965;23;96572;-79
2021/12/11 17:42:38;;;;;;;41.78;19.85;;;;;;;6.24;54.52;101544.19;6098261;23;96776;-78
2021/12/11 17:45:08;;;;;;;39.35;19.10;;;;;;;6.15;54.60;101541.63;6095965;23;101868;-78
2021/12/11 17:47:39;;;;;;;40.15;19.30;;;;;;;6.13;55.40;101541.63;6094444;23;99137;-79
2021/12/11 17:50:08;;;;;;;44.13;20.77;;;;;;;6.24;54.06;101538.94;6094693;23;96518;-79
2021/12/11 17:52:36;;;;;;;42.20;19.88;;;;;;;6.08;54.41;101537.28;6091339;23;97004;-78
2021/12/11 17:55:05;;;;;;;40.88;19.95;;;;;;;6.21;54.65;101545.09;6091952;23;99449;-78
2021/12/11 17:57:32;;;;;;;43.03;19.98;;;;;;;6.24;53.80;101544.19;6090808;23;98288;-77
2021/12/11 17:59:59;;;;;;;40.13;19.30;;;;;;;6.33;54.18;101544.16;6092027;23;97049;-77
2021/12/11 18:02:28;;;;;;;47.33;20.40;;;;;;;6.17;54.47;101540.72;6090691;23;96819;-76
2021/12/11 18:05:01;;;;;;;42.85;19.80;;;;;;;6.20;54.18;101545.09;6091184;23;97411;-82
2021/12/11 18:07:32;;;;;;;40.53;20.17;;;;;;;6.26;53.92;101553.81;6091442;23;97462;-77
2021/12/11 18:10:05;;;;;;;46.30;21.15;;;;;;;6.31;54.10;101553.75;6091717;23;96856;-80
2021/12/11 18:12:43;;;;;;;41.95;20.30;;;;;;;6.14;54.20;101566.09;6092902;23;96870;-77
2021/12/11 18:15:13;;;;;;;41.08;20.73;;;;;;;6.24;54.18;101570.44;6091638;23;99003;-78
2021/12/11 18:17:45;;;;;;;42.25;21.27;;;;;;;6.31;53.64;101578.25;6094198;23;98850;-77
2021/12/11 18:20:19;;;;;;;41.63;20.08;;;;;;;6.41;53.81;101579.09;6094043;23;97017;-77
2021/12/11 18:22:47;;;;;;;45.00;22.00;;;;;;;6.29;54.56;101590.56;6095323;23;96701;-77
2021/12/11 18:25:19;;;;;;;51.28;22.58;;;;;;;6.25;54.07;101591.41;6094366;23;98860;-77
2021/12/11 18:27:46;;;;;;;43.33;21.30;;;;;;;6.22;54.32;101604.56;6092989;23;99096;-78
2021/12/11 18:30:20;;;;;;;38.97;20.02;;;;;;;5.97;53.98;101603.75;6093680;23;96672;-77
2021/12/11 18:32:48;;;;;;;47.33;21.17;;;;;;;6.29;54.29;101606.28;6097497;23;96946;-78
2021/12/11 18:35:20;;;;;;;46.50;21.52;;;;;;;6.14;54.53;101619.47;6099522;23;97608;-79
2021/12/11 18:37:48;;;;;;;46.35;21.67;;;;;;;6.30;54.21;101615.03;6096681;23;98832;-79
2021/12/11 18:40:18;;;;;;;43.65;21.98;;;;;;;6.13;54.41;101604.59;6098191;23;96686;-77
2021/12/11 18:42:45;;;;;;;47.33;23.27;;;;;;;6.32;53.84;101618.50;6097387;23;96636;-78
2021/12/11 18:45:15;;;;;;;45.38;22.67;;;;;;;6.21;53.98;101612.44;6100771;23;101401;-79
2021/12/11 18:47:43;;;;;;;43.42;21.40;;;;;;;6.11;54.66;101615.97;6114065;23;98811;-80
2021/12/11 18:50:13;;;;;;;45.63;21.05;;;;;;;6.29;53.90;101614.16;6116054;23;96408;-79
2021/12/11 18:52:42;;;;;;;43.17;21.38;;;;;;;6.31;53.95;101619.38;6116180;23;96445;-78
2021/12/11 18:55:12;;;;;;;39.72;19.42;;;;;;;5.97;54.77;101619.50;6118573;23;100160;-78
2021/12/11 18:57:42;;;;;;;47.60;22.42;;;;;;;6.23;54.73;101621.19;6119474;23;96447;-79
2021/12/11 19:00:14;;;;;;;42.92;21.58;;;;;;;6.26;53.49;101629.91;6115468;23;96965;-77
2021/12/11 19:02:45;;;;;;;46.65;21.65;;;;;;;6.21;53.99;101636.94;6119592;23;96452;-78
2021/12/11 19:05:17;;;;;;;44.10;20.63;;;;;;;6.33;54.32;101623.75;6117729;23;97746;-78
2021/12/11 19:07:44;;;;;;;43.28;20.98;;;;;;;6.39;53.57;101626.38;6113539;23;97874;-79
2021/12/11 19:10:11;;;;;;;44.17;20.30;;;;;;;5.76;54.89;101630.03;6112846;23;96441;-77
2021/12/11 19:12:40;;;;;;;41.97;21.10;;;;;;;5.86;54.55;101637.00;6112521;23;96517;-79
2021/12/11 19:15:09;;;;;;;45.35;22.80;;;;;;;5.77;55.57;101630.91;6106952;23;98187;-78
2021/12/11 19:17:36;;;;;;;47.42;22.70;;;;;;;5.88;55.64;101629.16;6109332;23;99164;-77
2021/12/11 19:20:05;;;;;;;44.13;21.73;;;;;;;5.59;55.12;101637.91;6106600;23;96540;-76
2021/12/11 19:22:34;;;;;;;44.00;20.98;;;;;;;5.92;55.28;101644.00;6108225;23;96953;-77